sensor_id;sensor_type;location;lat;lon;timestamp;pressure;altitude;pressure_sealevel;temperature;humidity
70053;BME280;57398;52.032;4.376;2023-02-18T00:01:21;102514.19;;;8.54;100.00
70053;BME280;57398;52.032;4.376;2023-02-18T00:04:10;102517.41;;;8.56;100.00
70053;BME280;57398;52.032;4.376;2023-02-18T00:06:58;102517.25;;;8.58;100.00
70053;BME280;57398;52.032;4.376;2023-02-18T00:09:46;102512.22;;;8.56;100.00
70053;BME280;57398;52.032;4.376;2023-02-18T00:12:34;102503.34;;;8.59;100.00
70053;BME280;57398;52.032;4.376;2023-02-18T00:15:22;102507.84;;;8.65;100.00
70053;BME280;57398;52.032;4.376;2023-02-18T00:18:12;102496.84;;;8.63;100.00
70053;BME280;57398;52.032;4.376;2023-02-18T00:21:02;102498.13;;;8.67;100.00
70053;BME280;57398;52.032;4.376;2023-02-18T00:23:50;102498.28;;;8.66;100.00
70053;BME280;57398;52.032;4.376;2023-02-18T00:26:38;102501.72;;;8.66;100.00
70053;BME280;57398;52.032;4.376;2023-02-18T00:29:26;102501.38;;;8.69;100.00
70053;BME280;57398;52.032;4.376;2023-02-18T00:32:14;102499.25;;;8.73;100.00
70053;BME280;57398;52.032;4.376;2023-02-18T00:35:04;102496.03;;;8.71;100.00
70053;BME280;57398;52.032;4.376;2023-02-18T00:37:52;102501.53;;;8.76;100.00
70053;BME280;57398;52.032;4.376;2023-02-18T00:40:40;102494.53;;;8.76;100.00
70053;BME280;57398;52.032;4.376;2023-02-18T00:43:29;102493.72;;;8.84;100.00
70053;BME280;57398;52.032;4.376;2023-02-18T00:46:17;102490.50;;;8.82;100.00
70053;BME280;57398;52.032;4.376;2023-02-18T00:49:06;102491.31;;;8.83;100.00
70053;BME280;57398;52.032;4.376;2023-02-18T00:51:55;102481.59;;;8.85;100.00
70053;BME280;57398;52.032;4.376;2023-02-18T00:54:43;102483.03;;;8.87;100.00
70053;BME280;57398;52.032;4.376;2023-02-18T00:57:31;102485.63;;;8.87;100.00
70053;BME280;57398;52.032;4.376;2023-02-18T01:00:20;102480.94;;;8.83;100.00
70053;BME280;57398;52.032;4.376;2023-02-18T01:03:08;102478.81;;;8.86;100.00
70053;BME280;57398;52.032;4.376;2023-02-18T01:05:56;102477.84;;;8.87;100.00
70053;BME280;57398;52.032;4.376;2023-02-18T01:08:46;102471.69;;;8.88;100.00
70053;BME280;57398;52.032;4.376;2023-02-18T01:11:34;102481.72;;;8.91;100.00
70053;BME280;57398;52.032;4.376;2023-02-18T01:14:22;102478.00;;;8.94;100.00
70053;BME280;57398;52.032;4.376;2023-02-18T01:17:10;102476.22;;;8.94;100.00
70053;BME280;57398;52.032;4.376;2023-02-18T01:19:58;102461.81;;;8.92;100.00
70053;BME280;57398;52.032;4.376;2023-02-18T01:22:46;102458.22;;;8.93;100.00
70053;BME280;57398;52.032;4.376;2023-02-18T01:25:36;102456.78;;;8.90;100.00
70053;BME280;57398;52.032;4.376;2023-02-18T01:28:25;102453.22;;;8.91;100.00
70053;BME280;57398;52.032;4.376;2023-02-18T01:31:13;102456.13;;;8.88;100.00
70053;BME280;57398;52.032;4.376;2023-02-18T01:34:01;102454.22;;;8.82;100.00
70053;BME280;57398;52.032;4.376;2023-02-18T01:36:49;102463.75;;;8.81;100.00
70053;BME280;57398;52.032;4.376;2023-02-18T01:39:37;102462.50;;;8.77;100.00
70053;BME280;57398;52.032;4.376;2023-02-18T01:42:28;102446.94;;;8.77;100.00
70053;BME280;57398;52.032;4.376;2023-02-18T01:45:47;102454.53;;;8.79;100.00
70053;BME280;57398;52.032;4.376;2023-02-18T01:48:38;102441.13;;;8.75;100.00
70053;BME280;57398;52.032;4.376;2023-02-18T01:51:29;102432.38;;;8.76;100.00
70053;BME280;57398;52.032;4.376;2023-02-18T01:54:21;102434.16;;;8.76;100.00
70053;BME280;57398;52.032;4.376;2023-02-18T01:57:15;102429.63;;;8.78;100.00
70053;BME280;57398;52.032;4.376;2023-02-18T02:00:08;102427.47;;;8.81;100.00
70053;BME280;57398;52.032;4.376;2023-02-18T02:02:57;102416.63;;;8.86;100.00
70053;BME280;57398;52.032;4.376;2023-02-18T02:05:45;102409.50;;;8.88;100.00
70053;BME280;57398;52.032;4.376;2023-02-18T02:08:33;102410.31;;;8.89;100.00
70053;BME280;57398;52.032;4.376;2023-02-18T02:11:32;102400.41;;;8.92;100.00
70053;BME280;57398;52.032;4.376;2023-02-18T02:14:37;102399.59;;;8.92;100.00
70053;BME280;57398;52.032;4.376;2023-02-18T02:17:38;102396.84;;;8.93;100.00
70053;BME280;57398;52.032;4.376;2023-02-18T02:20:51;102398.94;;;8.98;100.00
70053;BME280;57398;52.032;4.376;2023-02-18T02:24:07;102392.41;;;9.02;100.00
70053;BME280;57398;52.032;4.376;2023-02-18T02:27:12;102387.06;;;9.04;100.00
70053;BME280;57398;52.032;4.376;2023-02-18T02:30:29;102376.41;;;8.98;100.00
70053;BME280;57398;52.032;4.376;2023-02-18T02:36:54;102341.72;;;8.99;100.00
70053;BME280;57398;52.032;4.376;2023-02-18T02:39:55;102343.53;;;8.99;100.00
70053;BME280;57398;52.032;4.376;2023-02-18T02:42:49;102340.44;;;8.95;100.00
70053;BME280;57398;52.032;4.376;2023-02-18T02:45:49;102330.28;;;8.94;100.00
70053;BME280;57398;52.032;4.376;2023-02-18T02:48:44;102323.19;;;8.79;100.00
70053;BME280;57398;52.032;4.376;2023-02-18T02:51:40;102318.88;;;8.72;100.00
70053;BME280;57398;52.032;4.376;2023-02-18T02:54:32;102318.88;;;8.72;100.00
70053;BME280;57398;52.032;4.376;2023-02-18T02:57:44;102319.53;;;8.66;100.00
70053;BME280;57398;52.032;4.376;2023-02-18T03:00:42;102319.88;;;8.63;100.00
70053;BME280;57398;52.032;4.376;2023-02-18T03:04:00;102326.84;;;8.62;100.00
70053;BME280;57398;52.032;4.376;2023-02-18T03:07:01;102311.66;;;8.59;100.00
70053;BME280;57398;52.032;4.376;2023-02-18T03:13:09;102317.13;;;8.64;100.00
70053;BME280;57398;52.032;4.376;2023-02-18T03:16:11;102316.63;;;8.69;100.00
70053;BME280;57398;52.032;4.376;2023-02-18T03:19:07;102312.25;;;8.69;100.00
70053;BME280;57398;52.032;4.376;2023-02-18T03:21:59;102301.03;;;8.77;100.00
70053;BME280;57398;52.032;4.376;2023-02-18T03:24:52;102302.19;;;8.74;100.00
70053;BME280;57398;52.032;4.376;2023-02-18T03:27:48;102277.91;;;8.75;100.00
70053;BME280;57398;52.032;4.376;2023-02-18T03:30:41;102279.66;;;8.75;100.00
70053;BME280;57398;52.032;4.376;2023-02-18T03:33:32;102282.25;;;8.75;100.00
70053;BME280;57398;52.032;4.376;2023-02-18T03:36:22;102277.25;;;8.73;100.00
70053;BME280;57398;52.032;4.376;2023-02-18T03:39:14;102274.47;;;8.75;100.00
70053;BME280;57398;52.032;4.376;2023-02-18T03:42:03;102286.00;;;8.72;100.00
70053;BME280;57398;52.032;4.376;2023-02-18T03:44:53;102270.97;;;8.68;100.00
70053;BME280;57398;52.032;4.376;2023-02-18T03:47:41;102267.72;;;8.66;100.00
70053;BME280;57398;52.032;4.376;2023-02-18T03:50:29;102264.97;;;8.67;100.00
70053;BME280;57398;52.032;4.376;2023-02-18T03:53:17;102260.59;;;8.68;100.00
70053;BME280;57398;52.032;4.376;2023-02-18T03:56:06;102273.56;;;8.68;100.00
70053;BME280;57398;52.032;4.376;2023-02-18T03:58:54;102271.16;;;8.66;100.00
70053;BME280;57398;52.032;4.376;2023-02-18T04:01:44;102269.06;;;8.62;100.00
70053;BME280;57398;52.032;4.376;2023-02-18T04:04:32;102266.94;;;8.65;100.00
70053;BME280;57398;52.032;4.376;2023-02-18T04:07:20;102257.56;;;8.64;100.00
70053;BME280;57398;52.032;4.376;2023-02-18T04:10:09;102260.94;;;8.65;100.00
70053;BME280;57398;52.032;4.376;2023-02-18T04:12:57;102252.38;;;8.64;100.00
70053;BME280;57398;52.032;4.376;2023-02-18T04:15:48;102253.53;;;8.62;100.00
70053;BME280;57398;52.032;4.376;2023-02-18T04:18:37;102242.97;;;8.63;100.00
70053;BME280;57398;52.032;4.376;2023-02-18T04:21:26;102250.09;;;8.61;100.00
70053;BME280;57398;52.032;4.376;2023-02-18T04:24:14;102254.63;;;8.67;100.00
70053;BME280;57398;52.032;4.376;2023-02-18T04:27:02;102235.03;;;8.65;100.00
70053;BME280;57398;52.032;4.376;2023-02-18T04:29:50;102245.56;;;8.63;100.00
70053;BME280;57398;52.032;4.376;2023-02-18T04:32:38;102242.34;;;8.61;100.00
70053;BME280;57398;52.032;4.376;2023-02-18T04:35:27;102231.19;;;8.60;100.00
70053;BME280;57398;52.032;4.376;2023-02-18T04:38:15;102227.78;;;8.60;100.00
70053;BME280;57398;52.032;4.376;2023-02-18T04:41:04;102203.03;;;8.57;100.00
70053;BME280;57398;52.032;4.376;2023-02-18T04:43:52;102199.28;;;8.60;100.00
70053;BME280;57398;52.032;4.376;2023-02-18T04:46:40;102203.84;;;8.58;100.00
70053;BME280;57398;52.032;4.376;2023-02-18T04:49:28;102198.16;;;8.63;100.00
70053;BME280;57398;52.032;4.376;2023-02-18T04:52:18;102201.72;;;8.62;100.00
70053;BME280;57398;52.032;4.376;2023-02-18T04:55:06;102198.94;;;8.63;100.00
70053;BME280;57398;52.032;4.376;2023-02-18T04:57:54;102208.50;;;8.63;100.00
70053;BME280;57398;52.032;4.376;2023-02-18T05:00:43;102205.88;;;8.71;100.00
70053;BME280;57398;52.032;4.376;2023-02-18T05:03:31;102209.44;;;8.70;100.00
70053;BME280;57398;52.032;4.376;2023-02-18T05:06:19;102210.22;;;8.70;100.00
70053;BME280;57398;52.032;4.376;2023-02-18T05:09:09;102191.56;;;8.75;100.00
70053;BME280;57398;52.032;4.376;2023-02-18T05:11:57;102195.63;;;8.77;100.00
70053;BME280;57398;52.032;4.376;2023-02-18T05:14:45;102194.47;;;8.80;100.00
70053;BME280;57398;52.032;4.376;2023-02-18T05:17:33;102191.53;;;8.83;100.00
70053;BME280;57398;52.032;4.376;2023-02-18T05:20:21;102184.75;;;8.82;100.00
70053;BME280;57398;52.032;4.376;2023-02-18T05:23:09;102178.69;;;8.90;100.00
70053;BME280;57398;52.032;4.376;2023-02-18T05:25:58;102177.09;;;8.89;100.00
70053;BME280;57398;52.032;4.376;2023-02-18T05:28:46;102178.69;;;8.90;100.00
70053;BME280;57398;52.032;4.376;2023-02-18T05:31:35;102165.91;;;8.88;100.00
70053;BME280;57398;52.032;4.376;2023-02-18T05:34:24;102171.44;;;8.85;100.00
70053;BME280;57398;52.032;4.376;2023-02-18T05:37:12;102163.50;;;8.87;100.00
70053;BME280;57398;52.032;4.376;2023-02-18T05:40:00;102170.91;;;8.90;100.00
70053;BME280;57398;52.032;4.376;2023-02-18T05:42:49;102159.75;;;8.89;100.00
70053;BME280;57398;52.032;4.376;2023-02-18T05:45:37;102160.56;;;8.90;100.00
70053;BME280;57398;52.032;4.376;2023-02-18T05:48:25;102156.81;;;8.92;100.00
70053;BME280;57398;52.032;4.376;2023-02-18T05:51:13;102144.38;;;8.88;100.00
70053;BME280;57398;52.032;4.376;2023-02-18T05:54:02;102160.72;;;8.88;100.00
70053;BME280;57398;52.032;4.376;2023-02-18T05:56:50;102152.03;;;8.81;100.00
70053;BME280;57398;52.032;4.376;2023-02-18T05:59:39;102141.38;;;8.76;100.00
70053;BME280;57398;52.032;4.376;2023-02-18T06:02:28;102135.75;;;8.72;100.00
70053;BME280;57398;52.032;4.376;2023-02-18T06:05:16;102139.47;;;8.70;100.00
70053;BME280;57398;52.032;4.376;2023-02-18T06:08:04;102140.47;;;8.69;100.00
70053;BME280;57398;52.032;4.376;2023-02-18T06:10:53;102149.56;;;8.65;100.00
70053;BME280;57398;52.032;4.376;2023-02-18T06:13:41;102163.16;;;8.67;100.00
70053;BME280;57398;52.032;4.376;2023-02-18T06:16:30;102157.97;;;8.67;100.00
70053;BME280;57398;52.032;4.376;2023-02-18T06:19:19;102153.59;;;8.67;100.00
70053;BME280;57398;52.032;4.376;2023-02-18T06:22:07;102153.88;;;8.72;100.00
70053;BME280;57398;52.032;4.376;2023-02-18T06:24:55;102150.03;;;8.68;100.00
70053;BME280;57398;52.032;4.376;2023-02-18T06:27:43;102160.41;;;8.68;100.00
70053;BME280;57398;52.032;4.376;2023-02-18T06:30:31;102161.00;;;8.70;100.00
70053;BME280;57398;52.032;4.376;2023-02-18T06:33:20;102154.38;;;8.68;100.00
70053;BME280;57398;52.032;4.376;2023-02-18T06:36:10;102150.84;;;8.69;100.00
70053;BME280;57398;52.032;4.376;2023-02-18T06:39:01;102147.59;;;8.67;100.00
70053;BME280;57398;52.032;4.376;2023-02-18T06:41:49;102151.63;;;8.69;100.00
70053;BME280;57398;52.032;4.376;2023-02-18T06:44:37;102147.44;;;8.68;100.00
70053;BME280;57398;52.032;4.376;2023-02-18T06:47:25;102141.44;;;8.68;100.00
70053;BME280;57398;52.032;4.376;2023-02-18T06:50:16;102142.44;;;8.67;100.00
70053;BME280;57398;52.032;4.376;2023-02-18T06:53:05;102147.25;;;8.70;100.00
70053;BME280;57398;52.032;4.376;2023-02-18T06:55:53;102138.72;;;8.61;100.00
70053;BME280;57398;52.032;4.376;2023-02-18T06:58:41;102143.75;;;8.63;100.00
70053;BME280;57398;52.032;4.376;2023-02-18T07:01:29;102141.50;;;8.59;100.00
70053;BME280;57398;52.032;4.376;2023-02-18T07:04:17;102141.84;;;8.56;100.00
70053;BME280;57398;52.032;4.376;2023-02-18T07:07:07;102138.44;;;8.56;100.00
70053;BME280;57398;52.032;4.376;2023-02-18T07:09:55;102137.50;;;8.57;100.00
70053;BME280;57398;52.032;4.376;2023-02-18T07:12:43;102131.47;;;8.56;100.00
70053;BME280;57398;52.032;4.376;2023-02-18T07:15:31;102131.84;;;8.53;100.00
70053;BME280;57398;52.032;4.376;2023-02-18T07:18:20;102130.88;;;8.54;100.00
70053;BME280;57398;52.032;4.376;2023-02-18T07:21:08;102114.69;;;8.52;100.00
70053;BME280;57398;52.032;4.376;2023-02-18T07:23:57;102123.44;;;8.51;100.00
70053;BME280;57398;52.032;4.376;2023-02-18T07:26:45;102124.75;;;8.47;100.00
70053;BME280;57398;52.032;4.376;2023-02-18T07:29:33;102124.41;;;8.50;100.00
70053;BME280;57398;52.032;4.376;2023-02-18T07:32:21;102120.19;;;8.49;100.00
70053;BME280;57398;52.032;4.376;2023-02-18T07:35:12;102111.13;;;8.53;100.00
70053;BME280;57398;52.032;4.376;2023-02-18T07:38:01;102108.53;;;8.53;100.00
70053;BME280;57398;52.032;4.376;2023-02-18T07:40:51;102108.38;;;8.55;100.00
70053;BME280;57398;52.032;4.376;2023-02-18T07:43:39;102108.81;;;8.58;100.00
70053;BME280;57398;52.032;4.376;2023-02-18T07:46:28;102108.53;;;8.53;100.00
70053;BME280;57398;52.032;4.376;2023-02-18T07:49:15;102103.47;;;8.60;100.00
70053;BME280;57398;52.032;4.376;2023-02-18T07:52:04;102113.97;;;8.58;100.00
70053;BME280;57398;52.032;4.376;2023-02-18T07:54:52;102108.16;;;8.56;100.00
70053;BME280;57398;52.032;4.376;2023-02-18T07:57:41;102102.38;;;8.54;100.00
70053;BME280;57398;52.032;4.376;2023-02-18T08:00:36;102103.47;;;8.60;100.00
70053;BME280;57398;52.032;4.376;2023-02-18T08:03:26;102115.25;;;8.63;100.00
70053;BME280;57398;52.032;4.376;2023-02-18T08:06:20;102100.97;;;8.67;100.00
70053;BME280;57398;52.032;4.376;2023-02-18T08:09:09;102104.38;;;8.67;100.00
70053;BME280;57398;52.032;4.376;2023-02-18T08:11:57;102099.06;;;8.60;100.00
70053;BME280;57398;52.032;4.376;2023-02-18T08:14:45;102114.34;;;8.55;100.00
70053;BME280;57398;52.032;4.376;2023-02-18T08:17:34;102113.53;;;8.55;100.00
70053;BME280;57398;52.032;4.376;2023-02-18T08:20:22;102114.19;;;8.57;100.00
70053;BME280;57398;52.032;4.376;2023-02-18T08:23:10;102120.97;;;8.58;100.00
70053;BME280;57398;52.032;4.376;2023-02-18T08:25:58;102114.97;;;8.57;100.00
70053;BME280;57398;52.032;4.376;2023-02-18T08:28:47;102116.88;;;8.64;100.00
70053;BME280;57398;52.032;4.376;2023-02-18T08:31:35;102113.66;;;8.62;100.00
70053;BME280;57398;52.032;4.376;2023-02-18T08:34:24;102116.53;;;8.67;100.00
70053;BME280;57398;52.032;4.376;2023-02-18T08:37:13;102104.72;;;8.64;100.00
70053;BME280;57398;52.032;4.376;2023-02-18T08:40:01;102111.34;;;8.67;100.00
70053;BME280;57398;52.032;4.376;2023-02-18T08:42:50;102111.78;;;8.70;100.00
70053;BME280;57398;52.032;4.376;2023-02-18T08:45:38;102114.22;;;8.72;100.00
70053;BME280;57398;52.032;4.376;2023-02-18T08:48:27;102106.91;;;8.75;100.00
70053;BME280;57398;52.032;4.376;2023-02-18T08:51:19;102111.09;;;8.76;100.00
70053;BME280;57398;52.032;4.376;2023-02-18T08:54:08;102107.03;;;8.82;100.00
70053;BME280;57398;52.032;4.376;2023-02-18T08:56:56;102119.09;;;8.90;100.00
70053;BME280;57398;52.032;4.376;2023-02-18T08:59:44;102120.56;;;8.84;100.00
70053;BME280;57398;52.032;4.376;2023-02-18T09:02:32;102125.97;;;8.83;100.00
70053;BME280;57398;52.032;4.376;2023-02-18T09:05:20;102123.53;;;8.81;100.00
70053;BME280;57398;52.032;4.376;2023-02-18T09:08:10;102119.25;;;8.88;100.00
70053;BME280;57398;52.032;4.376;2023-02-18T09:11:00;102133.13;;;8.95;100.00
70053;BME280;57398;52.032;4.376;2023-02-18T09:13:50;102130.63;;;9.02;100.00
70053;BME280;57398;52.032;4.376;2023-02-18T09:16:38;102137.16;;;8.98;100.00
70053;BME280;57398;52.032;4.376;2023-02-18T09:19:27;102128.03;;;8.87;100.00
70053;BME280;57398;52.032;4.376;2023-02-18T09:22:15;102137.50;;;8.95;100.00
70053;BME280;57398;52.032;4.376;2023-02-18T09:25:05;102138.81;;;8.91;100.00
70053;BME280;57398;52.032;4.376;2023-02-18T09:27:53;102142.06;;;8.93;100.00
70053;BME280;57398;52.032;4.376;2023-02-18T09:30:41;102136.44;;;8.89;100.00
70053;BME280;57398;52.032;4.376;2023-02-18T09:33:29;102140.19;;;9.01;100.00
70053;BME280;57398;52.032;4.376;2023-02-18T09:36:17;102139.16;;;9.11;100.00
70053;BME280;57398;52.032;4.376;2023-02-18T09:39:06;102142.31;;;9.21;100.00
70053;BME280;57398;52.032;4.376;2023-02-18T09:41:56;102154.66;;;9.34;100.00
70053;BME280;57398;52.032;4.376;2023-02-18T09:44:48;102157.34;;;9.26;100.00
70053;BME280;57398;52.032;4.376;2023-02-18T09:47:39;102163.66;;;9.23;100.00
70053;BME280;57398;52.032;4.376;2023-02-18T09:50:30;102153.66;;;9.20;100.00
70053;BME280;57398;52.032;4.376;2023-02-18T09:53:21;102147.75;;;9.26;100.00
70053;BME280;57398;52.032;4.376;2023-02-18T09:56:11;102157.06;;;9.35;100.00
70053;BME280;57398;52.032;4.376;2023-02-18T09:59:04;102155.09;;;9.37;100.00
70053;BME280;57398;52.032;4.376;2023-02-18T10:01:56;102147.97;;;9.39;100.00
70053;BME280;57398;52.032;4.376;2023-02-18T10:04:47;102153.03;;;9.48;100.00
70053;BME280;57398;52.032;4.376;2023-02-18T10:07:38;102158.50;;;9.53;100.00
70053;BME280;57398;52.032;4.376;2023-02-18T10:10:34;102166.75;;;9.56;100.00
70053;BME280;57398;52.032;4.376;2023-02-18T10:13:27;102173.19;;;9.60;100.00
70053;BME280;57398;52.032;4.376;2023-02-18T10:16:18;102149.03;;;9.60;100.00
70053;BME280;57398;52.032;4.376;2023-02-18T10:19:19;102153.22;;;9.61;100.00
70053;BME280;57398;52.032;4.376;2023-02-18T10:22:10;102174.25;;;9.66;100.00
70053;BME280;57398;52.032;4.376;2023-02-18T10:25:02;102185.53;;;9.73;100.00
70053;BME280;57398;52.032;4.376;2023-02-18T10:27:52;102183.38;;;9.77;100.00
70053;BME280;57398;52.032;4.376;2023-02-18T10:30:42;102175.69;;;9.83;100.00
70053;BME280;57398;52.032;4.376;2023-02-18T10:33:34;102180.63;;;9.78;100.00
70053;BME280;57398;52.032;4.376;2023-02-18T10:36:29;102189.72;;;9.89;100.00
70053;BME280;57398;52.032;4.376;2023-02-18T10:39:31;102180.50;;;9.86;100.00
70053;BME280;57398;52.032;4.376;2023-02-18T10:42:31;102167.25;;;9.96;100.00
70053;BME280;57398;52.032;4.376;2023-02-18T10:45:32;102172.19;;;10.06;100.00
70053;BME280;57398;52.032;4.376;2023-02-18T10:48:37;102174.56;;;10.07;100.00
70053;BME280;57398;52.032;4.376;2023-02-18T10:51:32;102179.88;;;9.99;100.00
70053;BME280;57398;52.032;4.376;2023-02-18T10:54:23;102178.06;;;10.15;100.00
70053;BME280;57398;52.032;4.376;2023-02-18T10:57:17;102178.88;;;10.15;100.00
70053;BME280;57398;52.032;4.376;2023-02-18T11:00:16;102178.00;;;10.08;100.00
70053;BME280;57398;52.032;4.376;2023-02-18T11:03:13;102178.66;;;10.17;100.00
70053;BME280;57398;52.032;4.376;2023-02-18T11:06:04;102163.72;;;10.19;100.00
70053;BME280;57398;52.032;4.376;2023-02-18T11:09:02;102179.75;;;10.22;100.00
70053;BME280;57398;52.032;4.376;2023-02-18T11:11:58;102189.59;;;10.27;100.00
70053;BME280;57398;52.032;4.376;2023-02-18T11:15:06;102176.78;;;10.25;100.00
70053;BME280;57398;52.032;4.376;2023-02-18T11:17:56;102173.56;;;10.38;100.00
70053;BME280;57398;52.032;4.376;2023-02-18T11:20:53;102172.63;;;10.46;100.00
70053;BME280;57398;52.032;4.376;2023-02-18T11:23:47;102185.28;;;10.49;100.00
70053;BME280;57398;52.032;4.376;2023-02-18T11:26:38;102170.41;;;10.43;100.00
70053;BME280;57398;52.032;4.376;2023-02-18T11:29:28;102173.97;;;10.42;100.00
70053;BME280;57398;52.032;4.376;2023-02-18T11:32:18;102180.81;;;10.43;100.00
70053;BME280;57398;52.032;4.376;2023-02-18T11:35:16;102186.66;;;10.30;100.00
70053;BME280;57398;52.032;4.376;2023-02-18T11:38:17;102177.06;;;10.31;100.00
70053;BME280;57398;52.032;4.376;2023-02-18T11:41:13;102185.91;;;10.21;100.00
70053;BME280;57398;52.032;4.376;2023-02-18T11:44:05;102177.06;;;10.16;100.00
70053;BME280;57398;52.032;4.376;2023-02-18T11:46:57;102174.66;;;10.14;100.00
70053;BME280;57398;52.032;4.376;2023-02-18T11:50:00;102174.78;;;10.06;100.00
70053;BME280;57398;52.032;4.376;2023-02-18T11:52:50;102171.88;;;10.16;100.00
70053;BME280;57398;52.032;4.376;2023-02-18T11:55:52;102185.38;;;10.26;100.00
70053;BME280;57398;52.032;4.376;2023-02-18T11:58:45;102189.16;;;10.38;100.00
70053;BME280;57398;52.032;4.376;2023-02-18T12:01:38;102183.91;;;10.53;100.00
70053;BME280;57398;52.032;4.376;2023-02-18T12:04:37;102166.16;;;10.57;100.00
70053;BME280;57398;52.032;4.376;2023-02-18T12:07:30;102169.75;;;10.77;100.00
70053;BME280;57398;52.032;4.376;2023-02-18T12:10:26;102158.13;;;11.01;100.00
70053;BME280;57398;52.032;4.376;2023-02-18T12:13:22;102156.53;;;11.00;100.00
70053;BME280;57398;52.032;4.376;2023-02-18T12:16:18;102162.53;;;11.01;100.00
70053;BME280;57398;52.032;4.376;2023-02-18T12:19:21;102154.50;;;11.24;100.00
70053;BME280;57398;52.032;4.376;2023-02-18T12:22:25;102143.88;;;11.53;100.00
70053;BME280;57398;52.032;4.376;2023-02-18T12:25:23;102144.56;;;11.69;100.00
70053;BME280;57398;52.032;4.376;2023-02-18T12:28:23;102140.22;;;11.41;100.00
70053;BME280;57398;52.032;4.376;2023-02-18T12:31:35;102144.31;;;11.57;100.00
70053;BME280;57398;52.032;4.376;2023-02-18T12:34:44;102143.47;;;11.50;100.00
70053;BME280;57398;52.032;4.376;2023-02-18T12:37:57;102146.97;;;11.36;100.00
70053;BME280;57398;52.032;4.376;2023-02-18T12:40:58;102134.31;;;11.26;100.00
70053;BME280;57398;52.032;4.376;2023-02-18T12:43:55;102152.75;;;11.31;100.00
70053;BME280;57398;52.032;4.376;2023-02-18T12:46:58;102150.75;;;11.33;100.00
70053;BME280;57398;52.032;4.376;2023-02-18T12:50:02;102153.31;;;11.26;100.00
70053;BME280;57398;52.032;4.376;2023-02-18T12:53:19;102156.34;;;11.30;100.00
70053;BME280;57398;52.032;4.376;2023-02-18T12:56:36;102157.25;;;11.16;100.00
70053;BME280;57398;52.032;4.376;2023-02-18T12:59:55;102167.66;;;11.16;100.00
70053;BME280;57398;52.032;4.376;2023-02-18T13:06:15;102159.06;;;11.22;100.00
70053;BME280;57398;52.032;4.376;2023-02-18T13:09:13;102159.31;;;11.27;100.00
70053;BME280;57398;52.032;4.376;2023-02-18T13:12:08;102153.31;;;11.26;100.00
70053;BME280;57398;52.032;4.376;2023-02-18T13:15:00;102167.69;;;11.22;100.00
70053;BME280;57398;52.032;4.376;2023-02-18T13:17:50;102172.09;;;11.22;100.00
70053;BME280;57398;52.032;4.376;2023-02-18T13:20:45;102171.25;;;11.15;100.00
70053;BME280;57398;52.032;4.376;2023-02-18T13:23:37;102164.66;;;11.19;100.00
70053;BME280;57398;52.032;4.376;2023-02-18T13:26:28;102159.06;;;11.22;100.00
70053;BME280;57398;52.032;4.376;2023-02-18T13:29:23;102164.28;;;11.22;100.00
70053;BME280;57398;52.032;4.376;2023-02-18T13:32:21;102149.28;;;11.24;100.00
70053;BME280;57398;52.032;4.376;2023-02-18T13:35:19;102169.66;;;11.14;100.00
70053;BME280;57398;52.032;4.376;2023-02-18T13:41:36;102155.81;;;11.41;100.00
70053;BME280;57398;52.032;4.376;2023-02-18T13:47:54;102157.34;;;11.64;100.00
70053;BME280;57398;52.032;4.376;2023-02-18T13:50:42;102154.53;;;11.65;100.00
70053;BME280;57398;52.032;4.376;2023-02-18T13:53:35;102150.94;;;11.66;100.00
70053;BME280;57398;52.032;4.376;2023-02-18T13:56:27;102146.38;;;11.75;100.00
70053;BME280;57398;52.032;4.376;2023-02-18T13:59:19;102144.41;;;11.84;100.00
70053;BME280;57398;52.032;4.376;2023-02-18T14:02:29;102147.97;;;11.76;100.00
70053;BME280;57398;52.032;4.376;2023-02-18T14:05:22;102150.22;;;11.86;100.00
70053;BME280;57398;52.032;4.376;2023-02-18T14:08:12;102149.81;;;11.82;100.00
70053;BME280;57398;52.032;4.376;2023-02-18T14:11:41;102152.28;;;11.90;100.00
70053;BME280;57398;52.032;4.376;2023-02-18T14:14:37;102148.81;;;11.83;100.00
70053;BME280;57398;52.032;4.376;2023-02-18T14:17:31;102142.06;;;11.54;100.00
70053;BME280;57398;52.032;4.376;2023-02-18T14:20:42;102144.66;;;11.54;100.00
70053;BME280;57398;52.032;4.376;2023-02-18T14:23:54;102150.75;;;11.33;100.00
70053;BME280;57398;52.032;4.376;2023-02-18T14:26:46;102161.50;;;11.23;100.00
70053;BME280;57398;52.032;4.376;2023-02-18T14:29:35;102164.06;;;11.17;100.00
70053;BME280;57398;52.032;4.376;2023-02-18T14:32:23;102161.00;;;11.13;100.00
70053;BME280;57398;52.032;4.376;2023-02-18T14:35:26;102168.59;;;11.08;100.00
70053;BME280;57398;52.032;4.376;2023-02-18T14:38:29;102168.78;;;11.06;100.00
70053;BME280;57398;52.032;4.376;2023-02-18T14:41:38;102179.59;;;11.10;100.00
70053;BME280;57398;52.032;4.376;2023-02-18T14:44:45;102171.50;;;10.98;100.00
70053;BME280;57398;52.032;4.376;2023-02-18T14:48:01;102176.53;;;11.00;100.00
70053;BME280;57398;52.032;4.376;2023-02-18T14:50:53;102161.91;;;10.99;100.00
70053;BME280;57398;52.032;4.376;2023-02-18T14:53:43;102177.91;;;10.96;100.00
70053;BME280;57398;52.032;4.376;2023-02-18T14:56:36;102171.50;;;10.98;100.00
70053;BME280;57398;52.032;4.376;2023-02-18T14:59:28;102192.03;;;10.86;100.00
70053;BME280;57398;52.032;4.376;2023-02-18T15:02:23;102177.41;;;10.85;100.00
70053;BME280;57398;52.032;4.376;2023-02-18T15:05:15;102181.25;;;10.89;100.00
70053;BME280;57398;52.032;4.376;2023-02-18T15:08:06;102186.94;;;11.00;100.00
70053;BME280;57398;52.032;4.376;2023-02-18T15:10:59;102175.69;;;10.93;100.00
70053;BME280;57398;52.032;4.376;2023-02-18T15:13:49;102176.78;;;10.83;100.00
70053;BME280;57398;52.032;4.376;2023-02-18T15:16:37;102189.91;;;10.75;100.00